sensor_id;sensor_type;location;lat;lon;timestamp;P1;durP1;ratioP1;P2;durP2;ratioP2
32637;SDS011;19045;52.268;10.506;2023-04-09T00:02:12;89.78;;;42.58;;
32637;SDS011;19045;52.268;10.506;2023-04-09T00:04:39;85.95;;;41.20;;
32637;SDS011;19045;52.268;10.506;2023-04-09T00:07:06;89.53;;;41.60;;
32637;SDS011;19045;52.268;10.506;2023-04-09T00:09:32;88.85;;;42.67;;
32637;SDS011;19045;52.268;10.506;2023-04-09T00:12:01;87.50;;;41.00;;
32637;SDS011;19045;52.268;10.506;2023-04-09T00:14:27;75.57;;;38.83;;
32637;SDS011;19045;52.268;10.506;2023-04-09T00:16:54;75.78;;;39.08;;
32637;SDS011;19045;52.268;10.506;2023-04-09T00:19:24;74.65;;;38.15;;
32637;SDS011;19045;52.268;10.506;2023-04-09T00:21:52;77.68;;;39.15;;
32637;SDS011;19045;52.268;10.506;2023-04-09T00:24:20;78.90;;;40.67;;
32637;SDS011;19045;52.268;10.506;2023-04-09T00:26:46;78.00;;;40.47;;
32637;SDS011;19045;52.268;10.506;2023-04-09T00:29:14;77.55;;;41.05;;
32637;SDS011;19045;52.268;10.506;2023-04-09T00:31:43;80.60;;;38.45;;
32637;SDS011;19045;52.268;10.506;2023-04-09T00:34:10;79.28;;;37.40;;
32637;SDS011;19045;52.268;10.506;2023-04-09T00:36:36;81.82;;;38.38;;
32637;SDS011;19045;52.268;10.506;2023-04-09T00:39:03;74.10;;;38.33;;
32637;SDS011;19045;52.268;10.506;2023-04-09T00:41:30;85.38;;;41.05;;
32637;SDS011;19045;52.268;10.506;2023-04-09T00:43:56;79.65;;;39.65;;
32637;SDS011;19045;52.268;10.506;2023-04-09T00:46:24;75.10;;;39.03;;
32637;SDS011;19045;52.268;10.506;2023-04-09T00:48:51;77.18;;;39.70;;
32637;SDS011;19045;52.268;10.506;2023-04-09T00:51:18;71.05;;;37.28;;
32637;SDS011;19045;52.268;10.506;2023-04-09T00:53:45;67.32;;;37.70;;
32637;SDS011;19045;52.268;10.506;2023-04-09T00:56:14;72.65;;;37.38;;
32637;SDS011;19045;52.268;10.506;2023-04-09T00:58:42;64.38;;;36.08;;
32637;SDS011;19045;52.268;10.506;2023-04-09T01:01:09;69.82;;;37.72;;
32637;SDS011;19045;52.268;10.506;2023-04-09T01:03:37;63.38;;;36.33;;
32637;SDS011;19045;52.268;10.506;2023-04-09T01:06:05;68.75;;;36.42;;
32637;SDS011;19045;52.268;10.506;2023-04-09T01:08:38;67.72;;;37.03;;
32637;SDS011;19045;52.268;10.506;2023-04-09T01:11:15;70.03;;;37.50;;
32637;SDS011;19045;52.268;10.506;2023-04-09T01:13:51;64.00;;;38.45;;
32637;SDS011;19045;52.268;10.506;2023-04-09T01:16:24;67.78;;;36.58;;
32637;SDS011;19045;52.268;10.506;2023-04-09T01:18:55;64.35;;;35.30;;
32637;SDS011;19045;52.268;10.506;2023-04-09T01:21:25;57.35;;;33.65;;
32637;SDS011;19045;52.268;10.506;2023-04-09T01:23:57;56.83;;;32.88;;
32637;SDS011;19045;52.268;10.506;2023-04-09T01:26:37;57.10;;;34.08;;
32637;SDS011;19045;52.268;10.506;2023-04-09T01:29:20;92.22;;;37.67;;
32637;SDS011;19045;52.268;10.506;2023-04-09T01:31:49;66.80;;;37.45;;
32637;SDS011;19045;52.268;10.506;2023-04-09T01:34:18;67.88;;;36.97;;
32637;SDS011;19045;52.268;10.506;2023-04-09T01:36:47;67.60;;;36.53;;
32637;SDS011;19045;52.268;10.506;2023-04-09T01:39:18;55.35;;;32.13;;
32637;SDS011;19045;52.268;10.506;2023-04-09T01:41:45;59.78;;;33.53;;
32637;SDS011;19045;52.268;10.506;2023-04-09T01:44:14;51.15;;;31.60;;
32637;SDS011;19045;52.268;10.506;2023-04-09T01:46:43;54.22;;;31.42;;
32637;SDS011;19045;52.268;10.506;2023-04-09T01:49:11;53.67;;;32.10;;
32637;SDS011;19045;52.268;10.506;2023-04-09T01:51:40;51.40;;;31.67;;
32637;SDS011;19045;52.268;10.506;2023-04-09T01:54:07;47.95;;;30.15;;
32637;SDS011;19045;52.268;10.506;2023-04-09T01:56:40;51.30;;;31.38;;
32637;SDS011;19045;52.268;10.506;2023-04-09T01:59:08;51.20;;;31.90;;
32637;SDS011;19045;52.268;10.506;2023-04-09T02:01:37;50.92;;;32.78;;
32637;SDS011;19045;52.268;10.506;2023-04-09T02:04:09;49.75;;;31.42;;
32637;SDS011;19045;52.268;10.506;2023-04-09T02:06:45;50.30;;;32.30;;
32637;SDS011;19045;52.268;10.506;2023-04-09T02:09:18;57.15;;;31.58;;
32637;SDS011;19045;52.268;10.506;2023-04-09T02:11:46;53.35;;;32.63;;
32637;SDS011;19045;52.268;10.506;2023-04-09T02:14:15;52.88;;;32.20;;
32637;SDS011;19045;52.268;10.506;2023-04-09T02:16:44;53.65;;;33.17;;
32637;SDS011;19045;52.268;10.506;2023-04-09T02:19:14;61.72;;;33.45;;
32637;SDS011;19045;52.268;10.506;2023-04-09T02:21:41;52.97;;;31.58;;
32637;SDS011;19045;52.268;10.506;2023-04-09T02:24:08;59.47;;;34.67;;
32637;SDS011;19045;52.268;10.506;2023-04-09T02:26:35;53.08;;;31.70;;
32637;SDS011;19045;52.268;10.506;2023-04-09T02:29:01;55.63;;;33.85;;
32637;SDS011;19045;52.268;10.506;2023-04-09T02:31:29;50.40;;;31.17;;
32637;SDS011;19045;52.268;10.506;2023-04-09T02:33:56;59.20;;;32.15;;
32637;SDS011;19045;52.268;10.506;2023-04-09T02:36:24;52.95;;;31.25;;
32637;SDS011;19045;52.268;10.506;2023-04-09T02:38:51;66.20;;;34.33;;
32637;SDS011;19045;52.268;10.506;2023-04-09T02:41:18;62.33;;;35.55;;
32637;SDS011;19045;52.268;10.506;2023-04-09T02:43:45;53.38;;;32.88;;
32637;SDS011;19045;52.268;10.506;2023-04-09T02:46:11;60.28;;;34.90;;
32637;SDS011;19045;52.268;10.506;2023-04-09T02:48:38;60.92;;;34.78;;
32637;SDS011;19045;52.268;10.506;2023-04-09T02:51:04;53.30;;;32.50;;
32637;SDS011;19045;52.268;10.506;2023-04-09T02:53:33;55.80;;;33.47;;
32637;SDS011;19045;52.268;10.506;2023-04-09T02:56:01;59.92;;;33.85;;
32637;SDS011;19045;52.268;10.506;2023-04-09T02:58:28;55.05;;;33.20;;
32637;SDS011;19045;52.268;10.506;2023-04-09T03:00:55;51.08;;;30.42;;
32637;SDS011;19045;52.268;10.506;2023-04-09T03:03:22;48.13;;;31.05;;
32637;SDS011;19045;52.268;10.506;2023-04-09T03:05:48;52.17;;;31.33;;
32637;SDS011;19045;52.268;10.506;2023-04-09T03:08:15;52.03;;;31.50;;
32637;SDS011;19045;52.268;10.506;2023-04-09T03:10:43;51.50;;;30.80;;
32637;SDS011;19045;52.268;10.506;2023-04-09T03:13:09;56.88;;;32.03;;
32637;SDS011;19045;52.268;10.506;2023-04-09T03:15:36;57.95;;;32.38;;
32637;SDS011;19045;52.268;10.506;2023-04-09T03:18:02;49.30;;;30.70;;
32637;SDS011;19045;52.268;10.506;2023-04-09T03:20:29;51.92;;;30.65;;
32637;SDS011;19045;52.268;10.506;2023-04-09T03:22:56;45.45;;;28.92;;
32637;SDS011;19045;52.268;10.506;2023-04-09T03:25:22;45.17;;;27.67;;
32637;SDS011;19045;52.268;10.506;2023-04-09T03:27:50;39.97;;;27.30;;
32637;SDS011;19045;52.268;10.506;2023-04-09T03:30:17;40.35;;;27.17;;
32637;SDS011;19045;52.268;10.506;2023-04-09T03:32:50;40.25;;;26.52;;
32637;SDS011;19045;52.268;10.506;2023-04-09T03:35:16;34.90;;;24.50;;
32637;SDS011;19045;52.268;10.506;2023-04-09T03:37:43;39.42;;;26.23;;
32637;SDS011;19045;52.268;10.506;2023-04-09T03:40:10;35.15;;;24.52;;
32637;SDS011;19045;52.268;10.506;2023-04-09T03:42:38;38.00;;;24.90;;
32637;SDS011;19045;52.268;10.506;2023-04-09T03:45:06;40.95;;;25.42;;
32637;SDS011;19045;52.268;10.506;2023-04-09T03:47:33;37.88;;;24.17;;
32637;SDS011;19045;52.268;10.506;2023-04-09T03:50:00;39.28;;;24.95;;
32637;SDS011;19045;52.268;10.506;2023-04-09T03:52:27;41.17;;;25.25;;
32637;SDS011;19045;52.268;10.506;2023-04-09T03:54:53;38.47;;;24.38;;
32637;SDS011;19045;52.268;10.506;2023-04-09T03:57:20;38.00;;;25.33;;
32637;SDS011;19045;52.268;10.506;2023-04-09T03:59:47;36.67;;;25.67;;
32637;SDS011;19045;52.268;10.506;2023-04-09T04:02:15;38.83;;;24.67;;
32637;SDS011;19045;52.268;10.506;2023-04-09T04:04:41;39.88;;;25.40;;
32637;SDS011;19045;52.268;10.506;2023-04-09T04:07:08;36.47;;;25.00;;
32637;SDS011;19045;52.268;10.506;2023-04-09T04:09:34;35.65;;;25.50;;
32637;SDS011;19045;52.268;10.506;2023-04-09T04:12:01;39.25;;;25.40;;
32637;SDS011;19045;52.268;10.506;2023-04-09T04:14:28;40.92;;;25.13;;
32637;SDS011;19045;52.268;10.506;2023-04-09T04:16:54;35.78;;;24.17;;
32637;SDS011;19045;52.268;10.506;2023-04-09T04:19:22;37.35;;;25.13;;
32637;SDS011;19045;52.268;10.506;2023-04-09T04:21:49;39.35;;;25.17;;
32637;SDS011;19045;52.268;10.506;2023-04-09T04:24:15;38.15;;;24.80;;
32637;SDS011;19045;52.268;10.506;2023-04-09T04:26:42;42.65;;;26.25;;
32637;SDS011;19045;52.268;10.506;2023-04-09T04:29:08;35.97;;;24.45;;
32637;SDS011;19045;52.268;10.506;2023-04-09T04:31:35;34.40;;;24.02;;
32637;SDS011;19045;52.268;10.506;2023-04-09T04:34:02;37.60;;;25.67;;
32637;SDS011;19045;52.268;10.506;2023-04-09T04:36:30;36.50;;;25.50;;
32637;SDS011;19045;52.268;10.506;2023-04-09T04:38:56;37.70;;;25.25;;
32637;SDS011;19045;52.268;10.506;2023-04-09T04:41:23;40.10;;;25.90;;
32637;SDS011;19045;52.268;10.506;2023-04-09T04:43:49;36.00;;;23.70;;
32637;SDS011;19045;52.268;10.506;2023-04-09T04:46:16;36.22;;;24.58;;
32637;SDS011;19045;52.268;10.506;2023-04-09T04:48:44;37.53;;;25.15;;
32637;SDS011;19045;52.268;10.506;2023-04-09T04:51:11;34.50;;;23.98;;
32637;SDS011;19045;52.268;10.506;2023-04-09T04:53:39;34.78;;;23.98;;
32637;SDS011;19045;52.268;10.506;2023-04-09T04:56:05;39.85;;;25.35;;
32637;SDS011;19045;52.268;10.506;2023-04-09T04:58:32;41.08;;;25.83;;
32637;SDS011;19045;52.268;10.506;2023-04-09T05:00:59;36.92;;;24.67;;
32637;SDS011;19045;52.268;10.506;2023-04-09T05:03:25;35.80;;;24.48;;
32637;SDS011;19045;52.268;10.506;2023-04-09T05:05:52;43.58;;;26.23;;
32637;SDS011;19045;52.268;10.506;2023-04-09T05:08:18;48.45;;;26.58;;
32637;SDS011;19045;52.268;10.506;2023-04-09T05:10:46;35.97;;;25.15;;
32637;SDS011;19045;52.268;10.506;2023-04-09T05:13:13;43.78;;;25.35;;
32637;SDS011;19045;52.268;10.506;2023-04-09T05:15:41;40.35;;;24.83;;
32637;SDS011;19045;52.268;10.506;2023-04-09T05:18:09;40.92;;;24.48;;
32637;SDS011;19045;52.268;10.506;2023-04-09T05:20:36;43.95;;;25.83;;
32637;SDS011;19045;52.268;10.506;2023-04-09T05:23:02;43.80;;;26.02;;
32637;SDS011;19045;52.268;10.506;2023-04-09T05:25:29;40.08;;;26.77;;
32637;SDS011;19045;52.268;10.506;2023-04-09T05:27:57;40.00;;;25.17;;
32637;SDS011;19045;52.268;10.506;2023-04-09T05:30:23;42.50;;;25.88;;
32637;SDS011;19045;52.268;10.506;2023-04-09T05:32:53;43.88;;;26.13;;
32637;SDS011;19045;52.268;10.506;2023-04-09T05:35:19;38.88;;;25.85;;
32637;SDS011;19045;52.268;10.506;2023-04-09T05:37:46;41.65;;;25.75;;
32637;SDS011;19045;52.268;10.506;2023-04-09T05:40:13;46.67;;;26.70;;
32637;SDS011;19045;52.268;10.506;2023-04-09T05:42:41;46.50;;;27.17;;
32637;SDS011;19045;52.268;10.506;2023-04-09T05:45:09;43.97;;;26.65;;
32637;SDS011;19045;52.268;10.506;2023-04-09T05:47:36;43.58;;;26.70;;
32637;SDS011;19045;52.268;10.506;2023-04-09T05:50:03;40.92;;;24.98;;
32637;SDS011;19045;52.268;10.506;2023-04-09T05:52:31;41.38;;;25.75;;
32637;SDS011;19045;52.268;10.506;2023-04-09T05:54:57;44.05;;;26.92;;
32637;SDS011;19045;52.268;10.506;2023-04-09T05:57:24;47.35;;;26.95;;
32637;SDS011;19045;52.268;10.506;2023-04-09T05:59:51;41.83;;;26.90;;
32637;SDS011;19045;52.268;10.506;2023-04-09T06:02:19;41.15;;;26.48;;
32637;SDS011;19045;52.268;10.506;2023-04-09T06:04:46;40.92;;;25.58;;
32637;SDS011;19045;52.268;10.506;2023-04-09T06:07:13;41.80;;;27.40;;
32637;SDS011;19045;52.268;10.506;2023-04-09T06:09:39;42.38;;;28.52;;
32637;SDS011;19045;52.268;10.506;2023-04-09T06:12:08;40.85;;;26.70;;
32637;SDS011;19045;52.268;10.506;2023-04-09T06:14:34;42.72;;;27.00;;
32637;SDS011;19045;52.268;10.506;2023-04-09T06:17:01;43.20;;;27.60;;
32637;SDS011;19045;52.268;10.506;2023-04-09T06:19:29;49.80;;;28.95;;
32637;SDS011;19045;52.268;10.506;2023-04-09T06:21:56;41.90;;;27.48;;
32637;SDS011;19045;52.268;10.506;2023-04-09T06:24:23;41.17;;;26.67;;
32637;SDS011;19045;52.268;10.506;2023-04-09T06:26:50;49.17;;;29.77;;
32637;SDS011;19045;52.268;10.506;2023-04-09T06:29:16;42.08;;;28.35;;
32637;SDS011;19045;52.268;10.506;2023-04-09T06:31:43;51.80;;;28.58;;
32637;SDS011;19045;52.268;10.506;2023-04-09T06:34:10;47.58;;;28.65;;
32637;SDS011;19045;52.268;10.506;2023-04-09T06:36:38;45.08;;;26.80;;
32637;SDS011;19045;52.268;10.506;2023-04-09T06:39:05;46.22;;;27.33;;
32637;SDS011;19045;52.268;10.506;2023-04-09T06:41:32;43.58;;;29.15;;
32637;SDS011;19045;52.268;10.506;2023-04-09T06:43:58;44.20;;;28.42;;
32637;SDS011;19045;52.268;10.506;2023-04-09T06:46:25;45.03;;;28.02;;
32637;SDS011;19045;52.268;10.506;2023-04-09T06:48:52;47.03;;;28.08;;
32637;SDS011;19045;52.268;10.506;2023-04-09T06:51:19;45.63;;;28.90;;
32637;SDS011;19045;52.268;10.506;2023-04-09T06:53:49;43.35;;;27.00;;
32637;SDS011;19045;52.268;10.506;2023-04-09T06:56:17;50.25;;;28.85;;
32637;SDS011;19045;52.268;10.506;2023-04-09T06:58:44;44.22;;;27.35;;
32637;SDS011;19045;52.268;10.506;2023-04-09T07:01:11;52.88;;;28.27;;
32637;SDS011;19045;52.268;10.506;2023-04-09T07:03:38;54.35;;;30.27;;
32637;SDS011;19045;52.268;10.506;2023-04-09T07:06:07;48.65;;;29.10;;
32637;SDS011;19045;52.268;10.506;2023-04-09T07:08:33;60.33;;;31.38;;
32637;SDS011;19045;52.268;10.506;2023-04-09T07:11:01;48.65;;;29.15;;
32637;SDS011;19045;52.268;10.506;2023-04-09T07:13:28;48.38;;;28.83;;
32637;SDS011;19045;52.268;10.506;2023-04-09T07:15:55;47.67;;;27.77;;
32637;SDS011;19045;52.268;10.506;2023-04-09T07:18:23;52.50;;;27.70;;
32637;SDS011;19045;52.268;10.506;2023-04-09T07:20:50;48.58;;;27.95;;
32637;SDS011;19045;52.268;10.506;2023-04-09T07:23:17;50.83;;;29.65;;
32637;SDS011;19045;52.268;10.506;2023-04-09T07:25:44;47.95;;;28.65;;
32637;SDS011;19045;52.268;10.506;2023-04-09T07:28:12;53.47;;;28.65;;
32637;SDS011;19045;52.268;10.506;2023-04-09T07:30:39;51.13;;;30.13;;
32637;SDS011;19045;52.268;10.506;2023-04-09T07:33:06;47.35;;;27.55;;
32637;SDS011;19045;52.268;10.506;2023-04-09T07:35:32;56.25;;;30.25;;
32637;SDS011;19045;52.268;10.506;2023-04-09T07:38:00;49.35;;;28.90;;
32637;SDS011;19045;52.268;10.506;2023-04-09T07:40:27;54.00;;;29.52;;
32637;SDS011;19045;52.268;10.506;2023-04-09T07:42:53;52.53;;;29.52;;
32637;SDS011;19045;52.268;10.506;2023-04-09T07:45:23;52.42;;;30.38;;
32637;SDS011;19045;52.268;10.506;2023-04-09T07:47:50;50.13;;;28.80;;
32637;SDS011;19045;52.268;10.506;2023-04-09T07:50:16;50.45;;;28.35;;
32637;SDS011;19045;52.268;10.506;2023-04-09T07:52:43;51.03;;;28.65;;
32637;SDS011;19045;52.268;10.506;2023-04-09T07:55:10;50.88;;;29.83;;
32637;SDS011;19045;52.268;10.506;2023-04-09T07:57:36;51.58;;;29.90;;
32637;SDS011;19045;52.268;10.506;2023-04-09T08:00:03;52.25;;;29.95;;
32637;SDS011;19045;52.268;10.506;2023-04-09T08:02:32;46.85;;;29.67;;
32637;SDS011;19045;52.268;10.506;2023-04-09T08:04:59;45.78;;;28.55;;
32637;SDS011;19045;52.268;10.506;2023-04-09T08:07:26;46.63;;;28.70;;
32637;SDS011;19045;52.268;10.506;2023-04-09T08:09:53;47.10;;;28.48;;
32637;SDS011;19045;52.268;10.506;2023-04-09T08:12:19;53.35;;;30.15;;
32637;SDS011;19045;52.268;10.506;2023-04-09T08:14:46;52.10;;;28.75;;
32637;SDS011;19045;52.268;10.506;2023-04-09T08:17:12;48.70;;;28.75;;
32637;SDS011;19045;52.268;10.506;2023-04-09T08:19:40;51.90;;;29.52;;
32637;SDS011;19045;52.268;10.506;2023-04-09T08:22:07;51.50;;;29.35;;
32637;SDS011;19045;52.268;10.506;2023-04-09T08:24:33;46.92;;;28.52;;
32637;SDS011;19045;52.268;10.506;2023-04-09T08:27:01;49.95;;;28.73;;
32637;SDS011;19045;52.268;10.506;2023-04-09T08:29:30;48.22;;;29.25;;
32637;SDS011;19045;52.268;10.506;2023-04-09T08:31:58;45.55;;;28.45;;
32637;SDS011;19045;52.268;10.506;2023-04-09T08:34:25;47.20;;;27.60;;
32637;SDS011;19045;52.268;10.506;2023-04-09T08:36:54;49.72;;;28.42;;
32637;SDS011;19045;52.268;10.506;2023-04-09T08:39:21;47.70;;;28.13;;
32637;SDS011;19045;52.268;10.506;2023-04-09T08:41:47;53.25;;;30.73;;
32637;SDS011;19045;52.268;10.506;2023-04-09T08:44:15;49.78;;;29.55;;
32637;SDS011;19045;52.268;10.506;2023-04-09T08:46:42;60.58;;;32.53;;
32637;SDS011;19045;52.268;10.506;2023-04-09T08:49:09;57.75;;;33.85;;
32637;SDS011;19045;52.268;10.506;2023-04-09T08:51:36;55.83;;;32.63;;
32637;SDS011;19045;52.268;10.506;2023-04-09T08:54:05;56.05;;;31.40;;
32637;SDS011;19045;52.268;10.506;2023-04-09T08:56:32;57.67;;;31.38;;
32637;SDS011;19045;52.268;10.506;2023-04-09T08:58:59;51.40;;;31.08;;
32637;SDS011;19045;52.268;10.506;2023-04-09T09:01:26;56.65;;;31.02;;
32637;SDS011;19045;52.268;10.506;2023-04-09T09:03:54;56.65;;;31.92;;
32637;SDS011;19045;52.268;10.506;2023-04-09T09:06:23;50.75;;;31.05;;
32637;SDS011;19045;52.268;10.506;2023-04-09T09:09:04;58.47;;;34.08;;
32637;SDS011;19045;52.268;10.506;2023-04-09T09:11:33;57.03;;;33.40;;
32637;SDS011;19045;52.268;10.506;2023-04-09T09:14:02;58.13;;;33.55;;
32637;SDS011;19045;52.268;10.506;2023-04-09T09:16:30;61.33;;;34.53;;
32637;SDS011;19045;52.268;10.506;2023-04-09T09:18:58;51.50;;;31.70;;
32637;SDS011;19045;52.268;10.506;2023-04-09T09:21:26;56.70;;;31.92;;
32637;SDS011;19045;52.268;10.506;2023-04-09T09:23:54;54.22;;;32.47;;
32637;SDS011;19045;52.268;10.506;2023-04-09T09:26:23;53.10;;;31.90;;
32637;SDS011;19045;52.268;10.506;2023-04-09T09:28:51;50.58;;;30.80;;
32637;SDS011;19045;52.268;10.506;2023-04-09T09:31:19;49.42;;;30.20;;
32637;SDS011;19045;52.268;10.506;2023-04-09T09:33:47;56.08;;;32.08;;
32637;SDS011;19045;52.268;10.506;2023-04-09T09:36:15;47.80;;;30.05;;
32637;SDS011;19045;52.268;10.506;2023-04-09T09:38:56;45.75;;;28.55;;
32637;SDS011;19045;52.268;10.506;2023-04-09T09:41:27;45.70;;;27.58;;
32637;SDS011;19045;52.268;10.506;2023-04-09T09:43:54;41.65;;;27.23;;
32637;SDS011;19045;52.268;10.506;2023-04-09T09:46:20;36.45;;;24.17;;
32637;SDS011;19045;52.268;10.506;2023-04-09T09:48:47;35.95;;;23.33;;
32637;SDS011;19045;52.268;10.506;2023-04-09T09:51:15;32.72;;;20.55;;
32637;SDS011;19045;52.268;10.506;2023-04-09T09:53:42;34.22;;;22.77;;
32637;SDS011;19045;52.268;10.506;2023-04-09T09:56:13;29.52;;;19.40;;
32637;SDS011;19045;52.268;10.506;2023-04-09T09:58:43;31.20;;;22.10;;
32637;SDS011;19045;52.268;10.506;2023-04-09T10:01:15;29.33;;;21.05;;
32637;SDS011;19045;52.268;10.506;2023-04-09T10:03:44;32.33;;;21.67;;
32637;SDS011;19045;52.268;10.506;2023-04-09T10:06:12;28.85;;;20.17;;
32637;SDS011;19045;52.268;10.506;2023-04-09T10:08:39;28.75;;;20.05;;
32637;SDS011;19045;52.268;10.506;2023-04-09T10:11:09;30.38;;;20.95;;
32637;SDS011;19045;52.268;10.506;2023-04-09T10:13:37;30.25;;;21.02;;
32637;SDS011;19045;52.268;10.506;2023-04-09T10:16:08;29.73;;;21.02;;
32637;SDS011;19045;52.268;10.506;2023-04-09T10:18:35;29.60;;;21.73;;
32637;SDS011;19045;52.268;10.506;2023-04-09T10:21:04;30.00;;;21.52;;
32637;SDS011;19045;52.268;10.506;2023-04-09T10:23:35;31.40;;;22.02;;
32637;SDS011;19045;52.268;10.506;2023-04-09T10:26:03;29.63;;;20.60;;
32637;SDS011;19045;52.268;10.506;2023-04-09T10:28:30;31.23;;;21.73;;
32637;SDS011;19045;52.268;10.506;2023-04-09T10:30:57;32.97;;;22.75;;
32637;SDS011;19045;52.268;10.506;2023-04-09T10:33:26;29.20;;;18.48;;
32637;SDS011;19045;52.268;10.506;2023-04-09T10:35:53;26.80;;;19.67;;
32637;SDS011;19045;52.268;10.506;2023-04-09T10:38:35;33.58;;;22.25;;
32637;SDS011;19045;52.268;10.506;2023-04-09T10:41:05;33.67;;;23.17;;
32637;SDS011;19045;52.268;10.506;2023-04-09T10:43:39;32.67;;;23.33;;
32637;SDS011;19045;52.268;10.506;2023-04-09T10:46:07;33.38;;;22.85;;
32637;SDS011;19045;52.268;10.506;2023-04-09T10:51:41;34.00;;;23.30;;
32637;SDS011;19045;52.268;10.506;2023-04-09T10:57:11;35.88;;;23.73;;
32637;SDS011;19045;52.268;10.506;2023-04-09T10:59:40;32.55;;;23.80;;
32637;SDS011;19045;52.268;10.506;2023-04-09T11:02:09;29.50;;;21.60;;
32637;SDS011;19045;52.268;10.506;2023-04-09T11:05:04;32.50;;;23.20;;
32637;SDS011;19045;52.268;10.506;2023-04-09T11:07:37;29.08;;;21.13;;
32637;SDS011;19045;52.268;10.506;2023-04-09T11:10:10;29.73;;;21.20;;
32637;SDS011;19045;52.268;10.506;2023-04-09T11:12:37;32.92;;;23.27;;
32637;SDS011;19045;52.268;10.506;2023-04-09T11:15:04;28.50;;;20.83;;
32637;SDS011;19045;52.268;10.506;2023-04-09T11:17:34;29.20;;;20.48;;
32637;SDS011;19045;52.268;10.506;2023-04-09T11:20:05;31.13;;;23.05;;
32637;SDS011;19045;52.268;10.506;2023-04-09T11:22:32;29.35;;;22.95;;
32637;SDS011;19045;52.268;10.506;2023-04-09T11:24:59;32.17;;;23.25;;
32637;SDS011;19045;52.268;10.506;2023-04-09T11:27:26;28.98;;;21.33;;
32637;SDS011;19045;52.268;10.506;2023-04-09T11:29:53;31.77;;;23.15;;
32637;SDS011;19045;52.268;10.506;2023-04-09T11:32:20;32.45;;;23.60;;
32637;SDS011;19045;52.268;10.506;2023-04-09T11:34:47;33.05;;;23.85;;
32637;SDS011;19045;52.268;10.506;2023-04-09T11:37:18;31.40;;;21.98;;
32637;SDS011;19045;52.268;10.506;2023-04-09T11:39:45;30.50;;;21.83;;
32637;SDS011;19045;52.268;10.506;2023-04-09T11:42:12;30.83;;;22.02;;
32637;SDS011;19045;52.268;10.506;2023-04-09T11:44:39;32.67;;;21.90;;
32637;SDS011;19045;52.268;10.506;2023-04-09T11:47:06;32.13;;;23.25;;
32637;SDS011;19045;52.268;10.506;2023-04-09T11:49:34;29.95;;;21.60;;
32637;SDS011;19045;52.268;10.506;2023-04-09T11:52:01;32.60;;;23.33;;
32637;SDS011;19045;52.268;10.506;2023-04-09T11:54:31;30.92;;;21.65;;
32637;SDS011;19045;52.268;10.506;2023-04-09T11:56:58;31.77;;;22.52;;
32637;SDS011;19045;52.268;10.506;2023-04-09T11:59:25;31.65;;;23.20;;
32637;SDS011;19045;52.268;10.506;2023-04-09T12:01:53;32.60;;;23.98;;
32637;SDS011;19045;52.268;10.506;2023-04-09T12:04:22;33.75;;;23.73;;
32637;SDS011;19045;52.268;10.506;2023-04-09T12:06:49;35.75;;;25.08;;
32637;SDS011;19045;52.268;10.506;2023-04-09T12:09:16;39.53;;;25.55;;
32637;SDS011;19045;52.268;10.506;2023-04-09T12:11:44;37.75;;;25.45;;
32637;SDS011;19045;52.268;10.506;2023-04-09T12:14:11;35.97;;;23.52;;
32637;SDS011;19045;52.268;10.506;2023-04-09T12:16:40;36.15;;;23.73;;
32637;SDS011;19045;52.268;10.506;2023-04-09T12:19:08;37.45;;;24.42;;
32637;SDS011;19045;52.268;10.506;2023-04-09T12:21:45;37.15;;;24.95;;
32637;SDS011;19045;52.268;10.506;2023-04-09T12:24:13;35.67;;;23.70;;
32637;SDS011;19045;52.268;10.506;2023-04-09T12:26:40;35.35;;;24.38;;
32637;SDS011;19045;52.268;10.506;2023-04-09T12:29:08;34.95;;;24.52;;
32637;SDS011;19045;52.268;10.506;2023-04-09T12:31:34;35.53;;;23.73;;
32637;SDS011;19045;52.268;10.506;2023-04-09T12:34:01;32.40;;;22.70;;
32637;SDS011;19045;52.268;10.506;2023-04-09T12:36:28;31.73;;;21.35;;
32637;SDS011;19045;52.268;10.506;2023-04-09T12:38:55;29.85;;;21.90;;
32637;SDS011;19045;52.268;10.506;2023-04-09T12:41:22;33.35;;;23.25;;
32637;SDS011;19045;52.268;10.506;2023-04-09T12:43:49;38.42;;;23.92;;
32637;SDS011;19045;52.268;10.506;2023-04-09T12:46:18;32.42;;;22.58;;
32637;SDS011;19045;52.268;10.506;2023-04-09T12:48:44;30.00;;;22.02;;
32637;SDS011;19045;52.268;10.506;2023-04-09T12:51:11;29.65;;;21.13;;
32637;SDS011;19045;52.268;10.506;2023-04-09T12:53:38;30.48;;;21.88;;
32637;SDS011;19045;52.268;10.506;2023-04-09T12:56:05;32.80;;;21.67;;
32637;SDS011;19045;52.268;10.506;2023-04-09T12:58:33;29.90;;;20.52;;
32637;SDS011;19045;52.268;10.506;2023-04-09T13:01:00;29.08;;;20.75;;
32637;SDS011;19045;52.268;10.506;2023-04-09T13:03:29;25.83;;;18.33;;
32637;SDS011;19045;52.268;10.506;2023-04-09T13:05:56;25.45;;;18.73;;
32637;SDS011;19045;52.268;10.506;2023-04-09T13:08:22;26.70;;;19.02;;
32637;SDS011;19045;52.268;10.506;2023-04-09T13:10:49;29.30;;;20.02;;
32637;SDS011;19045;52.268;10.506;2023-04-09T13:13:16;29.15;;;20.45;;
32637;SDS011;19045;52.268;10.506;2023-04-09T13:15:42;27.85;;;18.95;;
32637;SDS011;19045;52.268;10.506;2023-04-09T13:18:09;27.05;;;18.55;;
32637;SDS011;19045;52.268;10.506;2023-04-09T13:20:37;26.55;;;17.75;;
32637;SDS011;19045;52.268;10.506;2023-04-09T13:23:04;24.92;;;17.67;;
32637;SDS011;19045;52.268;10.506;2023-04-09T13:25:31;28.02;;;19.65;;
32637;SDS011;19045;52.268;10.506;2023-04-09T13:27:58;26.45;;;18.55;;
32637;SDS011;19045;52.268;10.506;2023-04-09T13:30:24;30.52;;;19.63;;
32637;SDS011;19045;52.268;10.506;2023-04-09T13:32:51;28.38;;;20.35;;
32637;SDS011;19045;52.268;10.506;2023-04-09T13:35:20;25.25;;;18.50;;
32637;SDS011;19045;52.268;10.506;2023-04-09T13:37:48;26.63;;;18.10;;
32637;SDS011;19045;52.268;10.506;2023-04-09T13:40:15;26.00;;;17.88;;
32637;SDS011;19045;52.268;10.506;2023-04-09T13:42:42;25.73;;;18.55;;
32637;SDS011;19045;52.268;10.506;2023-04-09T13:45:09;26.35;;;18.60;;
32637;SDS011;19045;52.268;10.506;2023-04-09T13:47:35;23.92;;;17.67;;
32637;SDS011;19045;52.268;10.506;2023-04-09T13:50:02;27.50;;;18.95;;
32637;SDS011;19045;52.268;10.506;2023-04-09T13:52:31;26.23;;;18.45;;
32637;SDS011;19045;52.268;10.506;2023-04-09T13:54:59;25.95;;;18.30;;
32637;SDS011;19045;52.268;10.506;2023-04-09T13:57:27;24.45;;;17.20;;
32637;SDS011;19045;52.268;10.506;2023-04-09T13:59:54;27.05;;;18.67;;
32637;SDS011;19045;52.268;10.506;2023-04-09T14:02:21;28.05;;;20.05;;
32637;SDS011;19045;52.268;10.506;2023-04-09T14:04:47;29.13;;;19.70;;
32637;SDS011;19045;52.268;10.506;2023-04-09T14:07:14;24.92;;;17.88;;
32637;SDS011;19045;52.268;10.506;2023-04-09T14:09:41;28.02;;;18.77;;
32637;SDS011;19045;52.268;10.506;2023-04-09T14:12:09;26.75;;;18.45;;
32637;SDS011;19045;52.268;10.506;2023-04-09T14:14:36;25.73;;;18.27;;
32637;SDS011;19045;52.268;10.506;2023-04-09T14:17:02;28.10;;;18.73;;
32637;SDS011;19045;52.268;10.506;2023-04-09T14:19:29;26.20;;;18.67;;